Nearby METAR Reports

 

KSJC - San Jose, California, USA
Distance from station: NE 14km
Aktualizace: 22/07/2017 03:53
Few Clouds
Few Clouds
 Wind from NW
Vítr: NW 20 km/h
Teplota: 22°C
Rosný bod: 13°C
Vlhkost: 57%
Tlak: 1014.2 hPa
Clouds: Few Clouds
Visibility: 16 km
Cloud details: Few Clouds 2286 m
2017/07/22 01:53 KSJC 220153Z 32011KT 10SM FEW075 22/13 A2995 RMK AO2 SLP141 T02170133
KNUQ - Moffett Nas/Mtn, California, USA
Distance from station: N 14km
Aktualizace: 22/07/2017 03:56
Jasno
Jasno
 Wind from N
Vítr: N 24 km/h
Teplota: 21°C
Rosný bod: 14°C
Vlhkost: 64%
Tlak: 1014.6 hPa
Clouds: Jasno
Visibility: 16 km
2017/07/22 01:56 KNUQ 220156Z 01013KT 10SM CLR 21/14 A2996 RMK AO2 SLP147 T02110139
 
KPAO - Palo Alto, California, USA
Distance from station: NNW 23km
Aktualizace: 22/07/2017 00:47
Neaktuální
Jasno
Jasno
 Wind from NW
Vítr: NW 28 km/h
Teplota: 27°C
Heat Index: 27°C
Rosný bod: 14°C
Vlhkost: 45%
Tlak: 1014.2 hPa
Clouds: Jasno
Visibility: 16 km
2017/07/21 22:47 KPAO 212247Z 32015KT 10SM SKC 27/14 A2995
KRHV - San Jose/Reid, California, USA
Distance from station: ENE 19km
Aktualizace: 22/07/2017 03:54
Jasno
Jasno
 Wind from NNW
Vítr: NNW 19 km/h
Teplota: 24°C
Rosný bod: 11°C
Vlhkost: 44%
Tlak: 1014.6 hPa
Clouds: Jasno
Visibility: 16 km
2017/07/22 01:54 KRHV 220154Z 33010KT 10SM SKC 24/11 A2996
 
KOAK - Oakland, California, USA
Distance from station: NNW 50km
Aktualizace: 22/07/2017 03:53
Few Clouds
Few Clouds
 Wind from W
Vítr: W 22 km/h
Teplota: 19°C
Rosný bod: 13°C
Vlhkost: 68%
Tlak: 1014.6 hPa
Clouds: Few Clouds
Visibility: 16 km
Cloud details: Few Clouds 305 m
Few Clouds 5486 m
2017/07/22 01:53 KOAK 220153Z 27012KT 10SM FEW010 FEW180 19/13 A2996 RMK AO2 SLP145 T01890128
KSQL - San Carlos Airpo, California, USA
Distance from station: NW 34km
Aktualizace: 22/07/2017 03:47
Jasno
Jasno
 Wind from W
Vítr: W 24 km/h
Teplota: 19°C
Rosný bod: 10°C
Vlhkost: 56%
Tlak: 1014.6 hPa
Clouds: Jasno
Visibility: 16 km
2017/07/22 01:47 KSQL 220147Z 26013KT 10SM SKC 19/10 A2996
 
KSFO - San Francisco, California, USA
Distance from station: NW 49km
Aktualizace: 22/07/2017 03:56
Few Clouds
Few Clouds
 Wind from W
Vítr: W 26 km/h, Nárazy: 43 km/h
Teplota: 17°C
Rosný bod: 11°C
Vlhkost: 68%
Tlak: 1014.2 hPa
Clouds: Few Clouds
Visibility: 16 km
Cloud details: Few Clouds 305 m
Few Clouds 5486 m
2017/07/22 01:56 KSFO 220156Z 27014G23KT 10SM FEW010 FEW180 17/11 A2995 RMK AO2 PK WND 26027/0057 SLP143 T01720106
KE16 - San Martin, California, USA
Distance from station: ESE 43km
Aktualizace: 14/07/2017 23:15
Neaktuální
Jasno
Jasno
 Wind from SSE
Vítr: SSE 11 km/h
Teplota: 32°C
Rosný bod: 8°C
Vlhkost: 22%
Tlak: 1016.3 hPa
Clouds: Jasno
Visibility: 16 km
2017/07/14 21:15 KE16 142115Z AUTO 16006KT 10SM CLR 32/08 A3001 RMK AO2
 
KWVI - Watsonville, California, USA
Distance from station: SSE 44km
Aktualizace: 22/07/2017 03:53
Jasno
Jasno
 Wind from ESE
Vítr: ESE 15 km/h
Teplota: 18°C
Rosný bod: 13°C
Vlhkost: 73%
Tlak: 1014.9 hPa
Clouds: Jasno
Visibility: 16 km
2017/07/22 01:53 KWVI 220153Z AUTO 12008KT 10SM CLR 18/13 A2997 RMK AO2 SLP150 T01830133
KHAF - Half Moon Bay, California, USA
Distance from station: WNW 50km
Aktualizace: 22/07/2017 04:35
Skoro zataženo
Skoro zataženo
 Wind from NW
Vítr: NW 13 km/h
Teplota: 14°C
Rosný bod: 12°C
Vlhkost: 88%
Tlak: 1015.2 hPa
Clouds: Skoro zataženo
Visibility: 11 km
Cloud details: Skoro zataženo 366 m
2017/07/22 02:35 KHAF 220235Z AUTO 31007KT 7SM BKN012 14/12 A2998 RMK AO2
 
KHWD - Hayward, California, USA
Distance from station: N 44km
Aktualizace: 22/07/2017 03:54
Jasno
Jasno
 Wind from W
Vítr: W 17 km/h
Teplota: 19°C
Rosný bod: 11°C
Vlhkost: 60%
Tlak: 1014.6 hPa
Clouds: Jasno
Visibility: 16 km
2017/07/22 01:54 KHWD 220154Z 27009KT 10SM CLR 19/11 A2996 RMK AO2 SLP154 T01890111
KLVK - Livermore, California, USA
Distance from station: NNE 51km
Aktualizace: 22/07/2017 03:53
Jasno
Jasno
 Wind from WNW
Vítr: WNW 19 km/h
Teplota: 25°C
Rosný bod: 10°C
Vlhkost: 39%
Tlak: 1012.9 hPa
Clouds: Jasno
Visibility: 16 km
2017/07/22 01:53 KLVK 220153Z 29010KT 10SM CLR 25/10 A2991 RMK AO2 SLP126 T02500100